Time;durP1;ratioP1;P1;durP2;ratioP2;P2;SDS_P1;SDS_P2;PMS_P1;PMS_P2;Temp;Humidity;BMP_temperature;BMP_pressure;BME280_temperature;BME280_humidity;BME280_pressure;Samples;Min_cycle;Max_cycle;Signal;HPM_P1;HPM_P2
2021/04/14 00:01:32;;;;;;;9.32;6.70;;;3.70;99.90;;;;;;5033473;28;20045;-73
2021/04/14 00:03:58;;;;;;;10.27;7.45;;;3.50;99.90;;;;;;5033653;28;20471;-72
2021/04/14 00:06:23;;;;;;;21.92;13.75;;;3.30;99.90;;;;;;5042790;28;20060;-73
2021/04/14 00:08:49;;;;;;;9.68;6.82;;;3.30;99.90;;;;;;5038244;28;20064;-72
2021/04/14 00:11:18;;;;;;;6.97;5.25;;;3.30;99.90;;;;;;5033535;28;20443;-72
2021/04/14 00:13:45;;;;;;;10.57;8.30;;;3.50;99.90;;;;;;5033261;28;20139;-73
2021/04/14 00:16:20;;;;;;;9.90;5.57;;;3.40;99.90;;;;;;5035051;28;20018;-72
2021/04/14 00:18:48;;;;;;;9.18;6.53;;;3.50;99.90;;;;;;5048217;28;20040;-72
2021/04/14 00:21:15;;;;;;;25.45;16.10;;;3.30;99.90;;;;;;5036077;28;20471;-72
2021/04/14 00:23:41;;;;;;;21.75;14.20;;;3.10;99.90;;;;;;5032960;28;20061;-72
2021/04/14 00:26:08;;;;;;;24.33;15.75;;;3.10;99.90;;;;;;5040501;28;20510;-72
2021/04/14 00:28:34;;;;;;;8.13;5.00;;;3.20;99.90;;;;;;5034074;28;20402;-72
2021/04/14 00:31:00;;;;;;;8.20;5.88;;;3.40;99.90;;;;;;5049956;28;20573;-73
2021/04/14 00:33:26;;;;;;;9.57;6.07;;;3.10;99.90;;;;;;5038349;28;20136;-72
2021/04/14 00:35:53;;;;;;;5.43;4.32;;;3.10;99.90;;;;;;5032331;28;20033;-72
2021/04/14 00:38:21;;;;;;;6.78;5.38;;;3.00;99.90;;;;;;5037716;28;20029;-73
2021/04/14 00:40:53;;;;;;;7.05;4.70;;;3.30;99.90;;;;;;5032792;28;20029;-72
2021/04/14 00:43:25;;;;;;;5.65;4.47;;;3.40;99.90;;;;;;5032936;28;20036;-72
2021/04/14 00:45:51;;;;;;;6.00;4.72;;;3.60;99.90;;;;;;5032347;28;20022;-72
2021/04/14 00:48:17;;;;;;;5.75;3.60;;;3.20;99.90;;;;;;5032746;28;20021;-73
2021/04/14 00:50:43;;;;;;;5.55;3.97;;;2.90;99.90;;;;;;5048906;28;20082;-73
2021/04/14 00:53:10;;;;;;;8.60;4.40;;;2.70;99.90;;;;;;5052578;28;20036;-73
2021/04/14 00:55:37;;;;;;;10.18;5.00;;;2.70;99.90;;;;;;5036879;28;20437;-72
2021/04/14 00:58:05;;;;;;;7.20;5.40;;;2.80;99.90;;;;;;5032112;28;20033;-72
2021/04/14 01:00:35;;;;;;;9.27;6.03;;;2.80;99.90;;;;;;5040236;28;20410;-72
2021/04/14 01:03:02;;;;;;;10.98;6.97;;;3.00;99.90;;;;;;5050617;28;20075;-72
2021/04/14 01:05:31;;;;;;;7.10;4.78;;;2.90;99.90;;;;;;5050115;28;20060;-72
2021/04/14 01:07:57;;;;;;;6.68;5.57;;;2.90;99.90;;;;;;5032167;28;20029;-73
2021/04/14 01:10:26;;;;;;;9.95;5.78;;;2.80;99.90;;;;;;5032178;28;20029;-72
2021/04/14 01:12:52;;;;;;;13.27;8.80;;;2.70;99.90;;;;;;5050760;28;20032;-73
2021/04/14 01:15:31;;;;;;;15.05;8.85;;;2.70;99.90;;;;;;5051560;28;20025;-72
2021/04/14 01:17:58;;;;;;;10.60;7.55;;;2.70;99.90;;;;;;5049218;28;20060;-72
2021/04/14 01:20:24;;;;;;;13.50;7.65;;;3.00;99.90;;;;;;5048414;28;20506;-72
2021/04/14 01:22:49;;;;;;;9.25;5.85;;;3.10;99.90;;;;;;5032214;28;20017;-72
2021/04/14 01:25:24;;;;;;;7.68;6.05;;;3.10;99.90;;;;;;5031631;28;20029;-72
2021/04/14 01:27:49;;;;;;;7.68;5.50;;;2.40;99.90;;;;;;5042353;28;20048;-72
2021/04/14 01:30:24;;;;;;;11.73;7.93;;;2.30;99.90;;;;;;5045603;28;20498;-72
2021/04/14 01:32:50;;;;;;;9.02;6.18;;;2.40;99.90;;;;;;5048427;28;20044;-73
2021/04/14 01:35:17;;;;;;;11.43;7.35;;;2.50;99.90;;;;;;5031909;28;20021;-72
2021/04/14 01:37:43;;;;;;;8.73;6.93;;;2.50;99.90;;;;;;5031942;28;20029;-72
2021/04/14 01:40:10;;;;;;;10.02;6.57;;;2.40;99.90;;;;;;5031756;28;20021;-72
2021/04/14 01:42:36;;;;;;;10.65;6.28;;;2.50;99.90;;;;;;5031975;28;20542;-72
2021/04/14 01:45:04;;;;;;;10.95;6.35;;;2.60;99.90;;;;;;5031844;28;20507;-73
2021/04/14 01:47:30;;;;;;;6.93;4.55;;;2.40;99.90;;;;;;5031292;28;20060;-72
2021/04/14 01:49:55;;;;;;;9.13;5.85;;;2.30;99.90;;;;;;5031355;28;20029;-72
2021/04/14 01:52:21;;;;;;;8.38;6.05;;;2.20;99.90;;;;;;5051623;28;20482;-72
2021/04/14 01:54:47;;;;;;;11.32;6.75;;;2.30;99.90;;;;;;5051774;28;20123;-72
2021/04/14 01:57:13;;;;;;;7.18;5.28;;;2.40;99.90;;;;;;5046694;28;20065;-73
2021/04/14 01:59:38;;;;;;;9.15;5.57;;;2.10;99.90;;;;;;5030520;28;20503;-72
2021/04/14 02:02:05;;;;;;;9.35;5.57;;;2.00;99.90;;;;;;5035692;28;20033;-72
2021/04/14 02:04:31;;;;;;;9.48;5.63;;;2.10;99.90;;;;;;5032748;28;20056;-73
2021/04/14 02:06:57;;;;;;;6.88;4.93;;;2.20;99.90;;;;;;5031723;28;20032;-72
2021/04/14 02:09:23;;;;;;;7.10;5.28;;;2.20;99.90;;;;;;5031477;28;20057;-72
2021/04/14 02:11:49;;;;;;;6.60;4.57;;;1.90;99.90;;;;;;5031695;28;20065;-72
2021/04/14 02:14:14;;;;;;;8.30;4.47;;;2.00;99.90;;;;;;5031199;28;20063;-72
2021/04/14 02:16:40;;;;;;;9.05;5.88;;;2.10;99.90;;;;;;5038997;28;20044;-72
2021/04/14 02:19:07;;;;;;;6.95;5.35;;;2.10;99.90;;;;;;5049982;28;21983;-72
2021/04/14 02:21:33;;;;;;;5.50;4.60;;;2.30;99.90;;;;;;5032488;28;20525;-72
2021/04/14 02:23:59;;;;;;;5.80;4.28;;;2.40;99.90;;;;;;5031436;28;20026;-72
2021/04/14 02:26:25;;;;;;;4.70;3.60;;;2.10;99.90;;;;;;5031083;28;20029;-72
2021/04/14 02:28:51;;;;;;;6.57;4.45;;;1.80;99.90;;;;;;5030859;28;20068;-72
2021/04/14 02:31:29;;;;;;;6.05;3.90;;;1.90;99.90;;;;;;5042283;28;20033;-72
2021/04/14 02:34:01;;;;;;;5.97;4.10;;;2.00;99.90;;;;;;5047232;28;20018;-73
2021/04/14 02:36:26;;;;;;;5.95;3.38;;;2.10;99.90;;;;;;5041094;28;20085;-73
2021/04/14 02:38:52;;;;;;;3.70;3.03;;;2.00;99.90;;;;;;5054031;28;20032;-73
2021/04/14 02:41:18;;;;;;;4.82;3.67;;;1.50;99.90;;;;;;5046541;28;20028;-72
2021/04/14 02:43:44;;;;;;;8.05;4.35;;;1.40;99.90;;;;;;5054426;28;20078;-72
2021/04/14 02:46:10;;;;;;;4.43;4.00;;;1.40;99.90;;;;;;5053256;28;20104;-72
2021/04/14 02:48:36;;;;;;;4.55;3.30;;;1.40;99.90;;;;;;5054452;28;20393;-72
2021/04/14 02:51:03;;;;;;;7.80;3.22;;;1.60;99.90;;;;;;5053927;28;20079;-73
2021/04/14 02:53:29;;;;;;;3.78;2.40;;;1.80;99.90;;;;;;5043816;28;20034;-73
2021/04/14 02:55:54;;;;;;;5.70;2.92;;;1.90;99.90;;;;;;5039224;28;20063;-72
2021/04/14 02:58:20;;;;;;;8.93;3.10;;;1.80;99.90;;;;;;5049781;28;20033;-73
2021/04/14 03:00:46;;;;;;;4.88;2.90;;;1.70;99.90;;;;;;5035203;28;20076;-72
2021/04/14 03:03:12;;;;;;;4.68;2.45;;;1.80;99.90;;;;;;5039371;28;20082;-72
2021/04/14 03:05:37;;;;;;;2.50;1.95;;;2.00;99.90;;;;;;5052082;28;20437;-72
2021/04/14 03:08:04;;;;;;;4.22;2.28;;;2.00;99.90;;;;;;5034664;28;20029;-72
2021/04/14 03:10:30;;;;;;;5.25;3.55;;;1.50;99.90;;;;;;5034419;28;20372;-72
2021/04/14 03:12:57;;;;;;;6.05;2.28;;;1.10;99.90;;;;;;5034556;28;20021;-73
2021/04/14 03:15:27;;;;;;;2.83;2.40;;;1.20;99.90;;;;;;5035113;28;20044;-72
2021/04/14 03:17:53;;;;;;;6.00;3.05;;;1.20;99.90;;;;;;5053232;28;20029;-72
2021/04/14 03:20:19;;;;;;;5.00;2.50;;;1.40;99.90;;;;;;5054197;28;20108;-73
2021/04/14 03:22:45;;;;;;;4.18;2.42;;;1.60;99.90;;;;;;5038096;28;20029;-73
2021/04/14 03:25:12;;;;;;;4.30;2.58;;;1.80;99.90;;;;;;5034257;28;20037;-72
2021/04/14 03:27:38;;;;;;;2.95;2.15;;;2.00;99.90;;;;;;5034193;28;20552;-73
2021/04/14 03:30:06;;;;;;;4.00;2.70;;;2.10;99.90;;;;;;5034065;28;20037;-72
2021/04/14 03:32:32;;;;;;;3.38;2.50;;;1.90;99.90;;;;;;5039784;28;20039;-72
2021/04/14 03:34:57;;;;;;;3.70;2.03;;;1.90;99.90;;;;;;5052712;28;20021;-72
2021/04/14 03:37:23;;;;;;;2.30;1.92;;;1.70;99.90;;;;;;5054053;28;20052;-72
2021/04/14 03:39:49;;;;;;;3.95;2.17;;;1.80;99.90;;;;;;5053196;28;20029;-72
2021/04/14 03:42:15;;;;;;;3.28;1.83;;;1.70;99.90;;;;;;5053687;28;20025;-72
2021/04/14 03:44:41;;;;;;;3.50;2.35;;;1.20;99.90;;;;;;5053651;28;20025;-72
2021/04/14 03:47:06;;;;;;;4.57;2.40;;;0.90;99.90;;;;;;5051523;28;20456;-72
2021/04/14 03:49:33;;;;;;;5.35;1.83;;;0.80;99.90;;;;;;5048974;28;20068;-72
2021/04/14 03:51:59;;;;;;;3.67;2.53;;;0.80;99.90;;;;;;5034143;28;20431;-72
2021/04/14 03:54:25;;;;;;;2.88;2.25;;;1.10;99.90;;;;;;5047179;28;20029;-72
2021/04/14 03:56:51;;;;;;;7.93;5.18;;;1.10;99.90;;;;;;5053398;28;20040;-72
2021/04/14 03:59:17;;;;;;;16.33;9.90;;;1.00;99.90;;;;;;5040515;28;20089;-72
2021/04/14 04:01:43;;;;;;;17.13;11.18;;;1.20;99.90;;;;;;5032815;28;20041;-72
2021/04/14 04:04:09;;;;;;;12.77;5.45;;;1.40;99.90;;;;;;5033729;28;20026;-72
2021/04/14 04:06:35;;;;;;;10.10;5.85;;;1.60;99.90;;;;;;5033189;28;20041;-72
2021/04/14 04:09:00;;;;;;;9.90;5.50;;;1.50;99.90;;;;;;5015220;28;20022;-72
2021/04/14 04:11:26;;;;;;;6.18;3.38;;;1.50;99.90;;;;;;5033674;28;20338;-72
2021/04/14 04:13:55;;;;;;;4.47;3.08;;;1.50;99.90;;;;;;5031618;28;20091;-72
2021/04/14 04:16:22;;;;;;;6.05;3.90;;;1.30;99.90;;;;;;5033024;28;20022;-72
2021/04/14 04:18:49;;;;;;;6.95;2.92;;;1.30;99.90;;;;;;5033195;28;20028;-72
2021/04/14 04:21:15;;;;;;;10.02;6.35;;;1.30;99.90;;;;;;5033094;28;20033;-72
2021/04/14 04:23:40;;;;;;;15.50;9.43;;;1.10;99.90;;;;;;5033145;28;20156;-72
2021/04/14 04:26:07;;;;;;;6.53;4.90;;;1.10;99.90;;;;;;5033343;28;20112;-72
2021/04/14 04:28:33;;;;;;;8.10;5.43;;;1.10;99.90;;;;;;5032849;28;20032;-72
2021/04/14 04:30:59;;;;;;;3.67;2.70;;;0.80;99.90;;;;;;5040773;28;20040;-72
2021/04/14 04:33:25;;;;;;;5.03;3.65;;;0.60;99.90;;;;;;5049880;28;20029;-72
2021/04/14 04:35:50;;;;;;;5.75;3.78;;;0.70;99.90;;;;;;5042538;28;20471;-72
2021/04/14 04:38:16;;;;;;;4.63;3.75;;;0.50;99.90;;;;;;5046347;28;20039;-72
2021/04/14 04:40:42;;;;;;;8.63;5.40;;;0.40;99.90;;;;;;5044453;28;20045;-72
2021/04/14 04:43:10;;;;;;;14.50;7.95;;;0.30;99.90;;;;;;5043375;28;20033;-72
2021/04/14 04:45:36;;;;;;;18.52;8.63;;;0.40;99.90;;;;;;5047293;28;20452;-72
2021/04/14 04:48:02;;;;;;;14.25;7.72;;;0.60;99.90;;;;;;5042831;28;20433;-72
2021/04/14 04:50:30;;;;;;;14.82;6.50;;;0.90;99.90;;;;;;5052180;28;20140;-72
2021/04/14 04:52:57;;;;;;;11.35;6.75;;;0.90;99.90;;;;;;5036299;28;20036;-73
2021/04/14 04:55:23;;;;;;;13.52;7.85;;;1.00;99.90;;;;;;5037832;28;20025;-72
2021/04/14 04:57:50;;;;;;;12.85;6.00;;;1.00;99.90;;;;;;5041636;28;20033;-73
2021/04/14 05:00:17;;;;;;;19.13;9.35;;;0.70;99.90;;;;;;5037847;28;20037;-72
2021/04/14 05:02:43;;;;;;;23.33;12.18;;;0.40;99.90;;;;;;5043673;28;20023;-76
2021/04/14 05:05:13;;;;;;;27.70;12.45;;;0.50;99.90;;;;;;5037113;28;20116;-77
2021/04/14 05:07:39;;;;;;;;;;;0.70;99.90;;;;;;5040278;28;20025;-72
2021/04/14 05:10:06;;;;;;;10.48;5.07;;;0.80;99.90;;;;;;5040934;28;19905;-72
2021/04/14 05:12:33;;;;;;;12.15;5.60;;;0.70;99.90;;;;;;5042777;28;20490;-72
2021/04/14 05:14:59;;;;;;;14.95;7.05;;;0.70;99.90;;;;;;5040877;28;20029;-72
2021/04/14 05:17:25;;;;;;;21.02;9.73;;;0.70;99.90;;;;;;5034450;28;20032;-72
2021/04/14 05:19:51;;;;;;;19.20;10.45;;;0.70;99.90;;;;;;5046475;28;20045;-72
2021/04/14 05:22:17;;;;;;;14.30;8.65;;;0.90;99.90;;;;;;5032704;28;20083;-72
2021/04/14 05:24:43;;;;;;;16.02;8.25;;;0.80;99.90;;;;;;5039641;28;20025;-72
2021/04/14 05:27:09;;;;;;;11.70;5.00;;;0.80;99.90;;;;;;5030526;28;20498;-74
2021/04/14 05:29:35;;;;;;;9.98;5.20;;;0.90;99.90;;;;;;5042514;28;20124;-74
2021/04/14 05:32:01;;;;;;;18.42;8.18;;;0.90;99.90;;;;;;5024089;28;20112;-74
2021/04/14 05:34:27;;;;;;;21.90;9.68;;;0.90;99.90;;;;;;5028180;28;20052;-74
2021/04/14 05:36:54;;;;;;;12.45;7.70;;;1.00;99.90;;;;;;5031660;28;20033;-74
2021/04/14 05:39:20;;;;;;;6.35;3.67;;;1.10;99.90;;;;;;5035593;28;20036;-74
2021/04/14 05:41:45;;;;;;;6.55;4.90;;;1.00;99.90;;;;;;5044894;28;20067;-74
2021/04/14 05:44:11;;;;;;;6.82;4.60;;;0.80;99.90;;;;;;5043786;28;20053;-73
2021/04/14 05:46:37;;;;;;;8.85;4.88;;;0.60;99.90;;;;;;5041919;28;20052;-74
2021/04/14 05:49:03;;;;;;;10.60;6.03;;;0.70;99.90;;;;;;5039362;28;20029;-73
2021/04/14 05:51:31;;;;;;;9.35;5.45;;;0.60;99.90;;;;;;5030741;28;20101;-74
2021/04/14 05:53:58;;;;;;;23.23;12.35;;;0.70;99.90;;;;;;5044868;28;20486;-74
2021/04/14 05:56:24;;;;;;;10.43;6.50;;;0.90;99.90;;;;;;5041944;28;20056;-73
2021/04/14 05:58:50;;;;;;;7.68;4.13;;;1.10;99.90;;;;;;5036629;28;20029;-74
2021/04/14 06:01:19;;;;;;;4.43;2.70;;;1.10;99.90;;;;;;5038446;28;20044;-74
2021/04/14 06:03:47;;;;;;;3.45;2.58;;;0.90;99.90;;;;;;5031434;28;20048;-74
2021/04/14 06:06:12;;;;;;;6.13;2.85;;;0.80;99.90;;;;;;5036071;28;20021;-73
2021/04/14 06:08:38;;;;;;;7.15;4.43;;;0.80;99.90;;;;;;5038999;28;20025;-74
2021/04/14 06:11:04;;;;;;;8.35;5.03;;;0.90;99.90;;;;;;5042712;28;20087;-74
2021/04/14 06:13:32;;;;;;;4.18;2.75;;;1.20;99.90;;;;;;5042343;28;20491;-74
2021/04/14 06:15:57;;;;;;;4.20;2.38;;;1.30;99.90;;;;;;5049486;28;20050;-74
2021/04/14 06:18:23;;;;;;;7.95;3.88;;;1.40;99.90;;;;;;5042616;28;20080;-74
2021/04/14 06:20:49;;;;;;;4.88;3.40;;;1.50;99.90;;;;;;5040511;28;20605;-74
2021/04/14 06:23:18;;;;;;;4.80;2.95;;;1.50;99.90;;;;;;5039457;28;20406;-74
2021/04/14 06:26:16;;;;;;;9.27;4.88;;;1.50;99.90;;;;;;5043248;28;20025;-74
2021/04/14 06:28:42;;;;;;;14.65;6.65;;;1.60;99.90;;;;;;5035313;28;20029;-74
2021/04/14 06:31:10;;;;;;;11.20;6.00;;;1.80;99.90;;;;;;5035470;28;20032;-74
2021/04/14 06:33:38;;;;;;;7.68;4.65;;;1.90;99.90;;;;;;5034044;28;20499;-74
2021/04/14 06:36:07;;;;;;;4.88;2.83;;;2.20;99.90;;;;;;5035242;28;20021;-74
2021/04/14 06:38:35;;;;;;;7.57;3.65;;;2.40;99.90;;;;;;5034799;28;20033;-74
2021/04/14 06:41:38;;;;;;;6.07;2.65;;;2.60;99.90;;;;;;5035154;28;20112;-74
2021/04/14 06:44:12;;;;;;;5.20;3.25;;;2.60;99.90;;;;;;5032591;28;20030;-74
2021/04/14 06:46:41;;;;;;;6.13;3.88;;;2.80;99.90;;;;;;5032749;28;20029;-74
2021/04/14 06:49:45;;;;;;;26.05;9.52;;;2.70;99.90;;;;;;5032802;28;20044;-74
2021/04/14 06:52:25;;;;;;;6.85;3.67;;;2.80;99.90;;;;;;5032305;28;20501;-74
2021/04/14 06:55:03;;;;;;;4.45;3.60;;;3.00;99.90;;;;;;5032611;28;20440;-73
2021/04/14 06:57:33;;;;;;;5.18;3.70;;;3.20;99.90;;;;;;5032898;28;20034;-73
2021/04/14 07:00:18;;;;;;;5.53;3.75;;;3.30;99.90;;;;;;5048954;28;20144;-73
2021/04/14 07:03:10;;;;;;;6.45;3.47;;;3.30;99.90;;;;;;5032678;28;20033;-73
2021/04/14 07:05:57;;;;;;;9.18;3.75;;;3.30;99.90;;;;;;5032486;28;20030;-73
2021/04/14 07:08:30;;;;;;;7.05;3.67;;;3.50;99.90;;;;;;5031841;28;20042;-73
2021/04/14 07:11:00;;;;;;;6.80;3.33;;;3.70;99.90;;;;;;5032373;28;20041;-73
2021/04/14 07:13:28;;;;;;;8.90;3.78;;;3.90;99.90;;;;;;5032518;28;20462;-74
2021/04/14 07:16:22;;;;;;;7.53;3.83;;;4.20;99.90;;;;;;5032142;28;20135;-74
2021/04/14 07:18:57;;;;;;;4.43;3.33;;;4.30;99.90;;;;;;5011699;28;20042;-74
2021/04/14 07:21:28;;;;;;;8.68;4.68;;;4.50;99.90;;;;;;5012200;28;20129;-74
2021/04/14 07:24:24;;;;;;;5.32;3.50;;;4.60;99.90;;;;;;5012527;28;20050;-74
2021/04/14 07:27:12;;;;;;;6.30;3.90;;;4.80;99.90;;;;;;5004676;28;20076;-74
2021/04/14 07:29:50;;;;;;;7.40;4.25;;;4.90;99.90;;;;;;5012280;28;20072;-74
2021/04/14 07:32:34;;;;;;;6.57;3.58;;;5.00;99.90;;;;;;5012184;28;20041;-74
2021/04/14 07:35:11;;;;;;;5.18;2.40;;;5.20;99.90;;;;;;5012213;28;20034;-74
2021/04/14 07:37:56;;;;;;;4.68;2.72;;;5.40;99.90;;;;;;5011899;28;20593;-74
2021/04/14 07:40:27;;;;;;;13.35;3.30;;;5.70;99.90;;;;;;5011902;28;20030;-74
2021/04/14 07:43:12;;;;;;;3.47;2.35;;;5.90;99.90;;;;;;5012020;28;20054;-74
2021/04/14 07:45:38;;;;;;;7.43;3.30;;;6.20;99.90;;;;;;5012112;28;20080;-74
2021/04/14 07:48:10;;;;;;;6.78;3.10;;;6.30;99.90;;;;;;5011991;28;20113;-74
2021/04/14 07:50:42;;;;;;;7.65;2.97;;;6.40;99.90;;;;;;5011447;28;20515;-74
2021/04/14 07:53:30;;;;;;;6.03;2.88;;;6.70;99.90;;;;;;5011761;28;20057;-74
2021/04/14 07:56:13;;;;;;;2.80;2.25;;;6.80;99.90;;;;;;5013382;28;20037;-74
2021/04/14 07:58:42;;;;;;;4.47;2.38;;;7.10;99.90;;;;;;5033730;28;20029;-74
2021/04/14 08:01:19;;;;;;;6.25;2.28;;;7.20;99.90;;;;;;5033897;28;20107;-74
2021/04/14 08:03:46;;;;;;;6.97;2.58;;;7.40;99.90;;;;;;5033700;28;20036;-74
2021/04/14 08:06:16;;;;;;;2.75;1.70;;;7.60;99.90;;;;;;5032039;28;20033;-74
2021/04/14 08:08:47;;;;;;;3.30;1.67;;;7.70;98.60;;;;;;5032376;28;20419;-74
2021/04/14 08:11:26;;;;;;;9.20;1.75;;;7.70;88.00;;;;;;5033528;28;20029;-74
2021/04/14 08:13:52;;;;;;;6.30;2.00;;;7.90;93.20;;;;;;5033511;28;20033;-74
2021/04/14 08:16:32;;;;;;;3.20;2.05;;;8.10;94.70;;;;;;5033346;28;20060;-74
2021/04/14 08:19:07;;;;;;;3.70;2.10;;;8.50;96.90;;;;;;5033252;28;20094;-74
2021/04/14 08:21:36;;;;;;;4.22;1.75;;;8.80;96.40;;;;;;5033442;28;20021;-74
2021/04/14 08:24:33;;;;;;;3.88;2.10;;;9.30;95.90;;;;;;5033299;28;20021;-74
2021/04/14 08:27:23;;;;;;;5.35;1.63;;;9.50;81.20;;;;;;5038874;28;20029;-75
2021/04/14 08:30:02;;;;;;;3.78;2.30;;;9.60;78.30;;;;;;5032104;28;20017;-74
2021/04/14 08:32:30;;;;;;;4.65;2.22;;;9.90;73.50;;;;;;5033173;28;20033;-74
2021/04/14 08:35:00;;;;;;;3.80;2.88;;;10.10;70.20;;;;;;5032763;28;20083;-74
2021/04/14 08:37:27;;;;;;;7.15;2.20;;;10.40;77.40;;;;;;5033004;28;20025;-74
2021/04/14 08:39:57;;;;;;;8.23;2.90;;;10.60;78.30;;;;;;5032866;28;20360;-75
2021/04/14 08:42:23;;;;;;;6.10;1.98;;;10.90;74.90;;;;;;5032775;28;20018;-74
2021/04/14 08:44:55;;;;;;;8.18;3.08;;;11.20;78.70;;;;;;5033072;28;20022;-74
2021/04/14 08:47:24;;;;;;;2.88;2.17;;;11.50;77.40;;;;;;5031466;28;20445;-74
2021/04/14 08:50:04;;;;;;;5.15;2.15;;;11.70;73.20;;;;;;5032568;28;20124;-74
2021/04/14 08:52:32;;;;;;;4.15;2.20;;;11.80;78.00;;;;;;5032655;28;20045;-74
2021/04/14 08:55:00;;;;;;;4.82;3.42;;;12.10;71.40;;;;;;5032646;28;20031;-74
2021/04/14 08:57:27;;;;;;;4.95;2.00;;;12.40;75.00;;;;;;5032526;28;20120;-74
2021/04/14 08:59:55;;;;;;;3.40;2.40;;;12.60;72.70;;;;;;5032430;28;20045;-75
2021/04/14 09:02:23;;;;;;;2.90;2.55;;;12.70;70.70;;;;;;5032456;28;20483;-74
2021/04/14 09:04:50;;;;;;;5.32;2.72;;;13.00;67.40;;;;;;5032268;28;20020;-74
2021/04/14 09:07:37;;;;;;;4.45;3.15;;;13.20;65.50;;;;;;5032365;28;20068;-74
2021/04/14 09:10:07;;;;;;;2.92;2.17;;;13.50;66.00;;;;;;5032425;28;20060;-74
2021/04/14 09:12:46;;;;;;;3.33;2.53;;;13.80;68.50;;;;;;5032428;28;20112;-74
2021/04/14 09:15:14;;;;;;;3.88;2.28;;;14.30;66.30;;;;;;5032235;28;20030;-74
2021/04/14 09:17:44;;;;;;;3.33;2.72;;;18.80;59.60;;;;;;5031923;28;20057;-74
2021/04/14 09:20:24;;;;;;;4.32;2.83;;;21.90;49.00;;;;;;5032163;28;20029;-75
2021/04/14 09:23:08;;;;;;;2.88;2.55;;;24.30;44.80;;;;;;5032233;28;20049;-74
2021/04/14 09:25:44;;;;;;;4.13;2.88;;;25.40;39.50;;;;;;5030899;28;20025;-75
2021/04/14 09:28:27;;;;;;;8.13;3.10;;;25.30;40.60;;;;;;5032134;28;20027;-75
2021/04/14 09:31:06;;;;;;;6.10;3.47;;;23.80;41.10;;;;;;5032132;28;20029;-75
2021/04/14 09:33:45;;;;;;;8.70;2.60;;;24.10;40.80;;;;;;5031711;28;20465;-75
2021/04/14 09:36:13;;;;;;;4.88;2.97;;;26.20;42.50;;;;;;5032022;28;20021;-75
2021/04/14 09:38:54;;;;;;;9.02;2.83;;;27.40;40.10;;;;;;5031971;28;20091;-75
2021/04/14 09:41:26;;;;;;;4.20;2.65;;;27.90;40.00;;;;;;5031591;28;20033;-75
2021/04/14 09:43:59;;;;;;;3.75;3.22;;;25.70;38.50;;;;;;5031914;28;20030;-75
2021/04/14 09:46:50;;;;;;;6.15;3.15;;;27.40;40.40;;;;;;5031456;28;20468;-75
2021/04/14 09:49:32;;;;;;;4.55;2.78;;;28.00;37.80;;;;;;5031849;28;20505;-75
2021/04/14 09:51:59;;;;;;;6.63;3.33;;;28.60;36.00;;;;;;5031856;28;20027;-75
2021/04/14 09:54:30;;;;;;;9.07;2.70;;;28.00;36.20;;;;;;5031628;28;20030;-75
2021/04/14 09:56:58;;;;;;;3.05;2.75;;;28.50;37.80;;;;;;5031745;28;20517;-75
2021/04/14 09:59:34;;;;;;;10.38;3.05;;;29.30;37.30;;;;;;5031531;28;20057;-75
2021/04/14 10:02:08;;;;;;;3.55;2.63;;;28.90;38.70;;;;;;5030146;28;20052;-75
2021/04/14 10:04:36;;;;;;;5.30;2.65;;;29.80;36.30;;;;;;5031678;28;20025;-75
2021/04/14 10:07:11;;;;;;;9.02;4.05;;;30.00;36.00;;;;;;5031804;28;20104;-75
2021/04/14 10:09:37;;;;;;;4.68;2.80;;;29.10;34.20;;;;;;5030255;28;20538;-75
2021/04/14 10:12:13;;;;;;;2.58;2.25;;;27.70;32.60;;;;;;5031845;28;20060;-75
2021/04/14 10:14:53;;;;;;;17.45;5.65;;;28.10;35.00;;;;;;5031597;28;20491;-75
2021/04/14 10:17:21;;;;;;;6.90;2.97;;;29.00;36.40;;;;;;5031170;28;20084;-75
2021/04/14 10:19:53;;;;;;;6.97;3.90;;;30.20;33.50;;;;;;5031445;28;20446;-75
2021/04/14 10:22:32;;;;;;;5.72;3.55;;;29.90;33.00;;;;;;5031625;28;20487;-75
2021/04/14 10:25:09;;;;;;;4.10;2.65;;;30.10;34.60;;;;;;5031709;28;20088;-75
2021/04/14 10:27:35;;;;;;;5.32;3.00;;;29.30;33.70;;;;;;5031354;28;20034;-75
2021/04/14 10:30:06;;;;;;;6.10;3.22;;;29.50;33.20;;;;;;5031193;28;20033;-75
2021/04/14 10:32:32;;;;;;;7.40;3.72;;;30.00;33.00;;;;;;5031382;28;20502;-75
2021/04/14 10:35:19;;;;;;;13.70;6.45;;;30.60;34.90;;;;;;5031512;28;20024;-75
2021/04/14 10:37:52;;;;;;;128.02;13.18;;;30.50;32.00;;;;;;5031153;28;20029;-75
2021/04/14 10:40:28;;;;;;;11.27;3.30;;;31.10;33.40;;;;;;5031248;28;20037;-75
2021/04/14 10:42:55;;;;;;;6.90;3.20;;;31.90;34.80;;;;;;5031445;28;20021;-75
2021/04/14 10:45:22;;;;;;;3.25;2.95;;;31.40;33.00;;;;;;5031223;28;20419;-75
2021/04/14 10:47:51;;;;;;;4.75;3.30;;;31.20;34.30;;;;;;5031220;28;20049;-75
2021/04/14 10:50:26;;;;;;;3.90;3.47;;;30.90;32.10;;;;;;5031150;28;20025;-75
2021/04/14 10:53:10;;;;;;;3.13;2.78;;;30.80;34.20;;;;;;5032405;28;20079;-75
2021/04/14 10:55:42;;;;;;;4.60;3.20;;;31.50;34.20;;;;;;5034928;28;20053;-75
2021/04/14 10:58:13;;;;;;;4.07;3.22;;;32.30;34.60;;;;;;5035018;28;20034;-75
2021/04/14 11:00:40;;;;;;;4.45;2.95;;;32.40;33.20;;;;;;5034258;28;20069;-75
2021/04/14 11:03:08;;;;;;;6.78;3.08;;;31.40;31.60;;;;;;5034911;28;20033;-75
2021/04/14 11:05:38;;;;;;;9.77;4.40;;;32.40;33.90;;;;;;5034698;28;20029;-75
2021/04/14 11:08:06;;;;;;;4.18;3.33;;;33.80;31.30;;;;;;5034925;28;20092;-75
2021/04/14 11:10:37;;;;;;;6.07;4.03;;;34.80;31.70;;;;;;5034872;28;20025;-75
2021/04/14 11:13:05;;;;;;;7.88;4.07;;;34.40;33.10;;;;;;5034467;28;20056;-75
2021/04/14 11:15:40;;;;;;;7.43;3.47;;;34.60;30.90;;;;;;5034310;28;20024;-75
2021/04/14 11:18:09;;;;;;;4.15;3.38;;;34.60;32.10;;;;;;5034618;28;20067;-75
2021/04/14 11:20:43;;;;;;;4.18;3.33;;;34.20;30.70;;;;;;5034391;28;20048;-73
2021/04/14 11:23:21;;;;;;;6.03;3.50;;;33.90;30.10;;;;;;5033267;28;20479;-73
2021/04/14 11:25:47;;;;;;;6.07;4.13;;;32.80;30.30;;;;;;5034270;28;20029;-73
2021/04/14 11:28:16;;;;;;;6.65;3.80;;;34.00;30.30;;;;;;5033959;28;20040;-73
2021/04/14 11:30:57;;;;;;;5.40;3.33;;;34.90;31.50;;;;;;5034308;28;20026;-73
2021/04/14 11:33:39;;;;;;;4.45;3.50;;;35.50;32.60;;;;;;5034397;28;20517;-73
2021/04/14 11:36:16;;;;;;;3.78;2.72;;;35.90;30.80;;;;;;5034273;28;20021;-74
2021/04/14 11:38:43;;;;;;;5.90;3.60;;;35.70;30.50;;;;;;5034285;28;20391;-74
2021/04/14 11:41:21;;;;;;;4.70;3.72;;;35.80;32.70;;;;;;5033861;28;20093;-74
2021/04/14 11:43:47;;;;;;;4.05;3.65;;;34.20;29.30;;;;;;5033758;28;20044;-74
2021/04/14 11:46:30;;;;;;;7.22;3.58;;;33.20;31.30;;;;;;5034078;28;20021;-74
2021/04/14 11:49:02;;;;;;;3.78;3.33;;;33.80;30.90;;;;;;5033817;28;20025;-74
2021/04/14 11:51:39;;;;;;;4.63;3.20;;;34.40;30.40;;;;;;5033716;28;20082;-74
2021/04/14 11:54:07;;;;;;;5.97;3.30;;;33.90;31.60;;;;;;5033918;28;20483;-74
2021/04/14 11:56:44;;;;;;;7.50;3.55;;;34.60;32.10;;;;;;5033686;28;20036;-74
2021/04/14 11:59:26;;;;;;;45.05;4.20;;;33.70;29.30;;;;;;5033582;28;20538;-73
2021/04/14 12:01:55;;;;;;;4.63;3.13;;;34.10;32.30;;;;;;5033607;28;20053;-73
2021/04/14 12:04:21;;;;;;;5.05;2.92;;;33.60;28.80;;;;;;5033498;28;20021;-73
2021/04/14 12:06:47;;;;;;;4.65;3.10;;;29.90;29.70;;;;;;5033684;28;20079;-73
2021/04/14 12:09:13;;;;;;;8.23;3.20;;;30.80;31.90;;;;;;5033612;28;20033;-73
2021/04/14 12:11:38;;;;;;;4.90;3.20;;;33.00;32.70;;;;;;5033277;28;20033;-73
2021/04/14 12:14:05;;;;;;;4.10;3.30;;;34.60;31.10;;;;;;5033528;28;20479;-73
2021/04/14 12:16:32;;;;;;;9.60;3.42;;;35.00;30.40;;;;;;5033517;28;20026;-74
2021/04/14 12:18:58;;;;;;;6.35;3.30;;;34.90;30.30;;;;;;5032086;28;20111;-73
2021/04/14 12:21:23;;;;;;;7.05;4.30;;;35.60;30.50;;;;;;5032023;28;20060;-73
2021/04/14 12:23:50;;;;;;;3.53;2.80;;;33.90;30.00;;;;;;5032034;28;20483;-73
2021/04/14 12:26:16;;;;;;;3.45;3.05;;;34.80;32.50;;;;;;5033031;28;20079;-74
2021/04/14 12:28:42;;;;;;;3.83;3.40;;;34.10;28.00;;;;;;5033316;28;20426;-73
2021/04/14 12:31:08;;;;;;;3.05;2.67;;;33.50;30.70;;;;;;5033043;28;20034;-73
2021/04/14 12:33:34;;;;;;;3.35;3.03;;;33.50;32.70;;;;;;5033154;28;20033;-73
2021/04/14 12:35:59;;;;;;;29.70;4.80;;;32.90;30.60;;;;;;5033015;28;20026;-73
2021/04/14 12:38:25;;;;;;;5.35;3.67;;;33.60;34.10;;;;;;5033211;28;20259;-73
2021/04/14 12:40:51;;;;;;;5.75;3.40;;;34.90;29.90;;;;;;5032435;28;20033;-73
2021/04/14 12:43:17;;;;;;;3.33;3.03;;;34.90;30.00;;;;;;5033047;28;20049;-73
2021/04/14 12:45:47;;;;;;;13.88;4.45;;;35.00;31.50;;;;;;5032922;28;20029;-73
2021/04/14 12:48:21;;;;;;;6.10;3.40;;;33.50;29.10;;;;;;5032811;28;20395;-73
2021/04/14 12:51:14;;;;;;;8.75;4.38;;;33.00;31.30;;;;;;5032946;28;20033;-73
2021/04/14 12:53:48;;;;;;;3.28;3.00;;;34.60;29.50;;;;;;5032185;28;20116;-73
2021/04/14 12:56:24;;;;;;;8.38;3.83;;;35.10;30.80;;;;;;5032300;28;20037;-73
2021/04/14 12:58:51;;;;;;;8.23;3.67;;;34.90;32.50;;;;;;5032488;28;20029;-73
2021/04/14 13:01:18;;;;;;;6.00;3.20;;;35.30;30.80;;;;;;5032629;28;20039;-73
2021/04/14 13:04:03;;;;;;;4.20;3.30;;;35.90;30.30;;;;;;5032651;28;20105;-74
2021/04/14 13:06:49;;;;;;;6.93;3.60;;;35.30;30.60;;;;;;5032564;28;20033;-73